Time;durP1;ratioP1;P1;durP2;ratioP2;P2;SDS_P1;SDS_P2;PMS_P1;PMS_P2;Temp;Humidity;BMP_temperature;BMP_pressure;BME280_temperature;BME280_humidity;BME280_pressure;Samples;Min_cycle;Max_cycle;Signal;HPM_P1;HPM_P2
2021/11/10 07:01:38;;;;;;;34.45;20.60;;;11.10;99.90;;;;;;5285372;23;20049;-78
2021/11/10 07:04:05;;;;;;;24.38;18.23;;;11.10;99.90;;;;;;4896625;29;20061;-78
2021/11/10 07:06:32;;;;;;;23.15;17.45;;;11.10;99.90;;;;;;4897895;29;20055;-78
2021/11/10 07:08:59;;;;;;;20.77;17.40;;;11.10;99.90;;;;;;4896594;29;20481;-78
2021/11/10 07:11:26;;;;;;;36.92;21.75;;;11.10;99.90;;;;;;4896491;29;20071;-79
2021/11/10 07:13:53;;;;;;;23.40;18.45;;;11.10;99.90;;;;;;4896014;29;20521;-79
2021/11/10 07:16:19;;;;;;;32.53;21.95;;;11.20;99.90;;;;;;4896839;29;20490;-80
2021/11/10 07:18:46;;;;;;;21.20;17.27;;;11.20;99.90;;;;;;4896710;29;20048;-79
2021/11/10 07:21:14;;;;;;;22.92;17.23;;;11.20;99.90;;;;;;4896063;29;20048;-79
2021/11/10 07:23:41;;;;;;;23.48;16.70;;;11.20;99.90;;;;;;4897190;29;20041;-79
2021/11/10 07:26:08;;;;;;;24.83;18.02;;;11.20;99.90;;;;;;4896466;29;20548;-79
2021/11/10 07:28:35;;;;;;;21.65;17.63;;;11.20;99.90;;;;;;4880165;29;20123;-79
2021/11/10 07:31:02;;;;;;;24.38;17.05;;;11.20;99.90;;;;;;4895972;29;20113;-80
2021/11/10 07:33:29;;;;;;;34.95;20.48;;;11.20;99.90;;;;;;4895519;29;20052;-79
2021/11/10 07:35:56;;;;;;;21.45;16.98;;;11.20;99.90;;;;;;4896000;29;20049;-79
2021/11/10 07:38:25;;;;;;;19.27;17.10;;;11.20;99.90;;;;;;4891039;29;20113;-79
2021/11/10 07:40:54;;;;;;;36.00;21.02;;;11.20;99.90;;;;;;4885840;29;20095;-80
2021/11/10 07:43:27;;;;;;;20.67;16.50;;;11.30;99.90;;;;;;4894811;29;20053;-79
2021/11/10 07:45:58;;;;;;;19.50;16.60;;;11.30;99.90;;;;;;4896003;29;20049;-80
2021/11/10 07:48:25;;;;;;;32.42;20.67;;;11.30;99.90;;;;;;4893904;29;20044;-79
2021/11/10 07:50:52;;;;;;;19.95;16.98;;;11.30;99.90;;;;;;4895829;29;20141;-79
2021/11/10 07:53:19;;;;;;;22.30;17.75;;;11.40;99.90;;;;;;4894800;29;20116;-79
2021/11/10 07:55:47;;;;;;;21.67;17.88;;;11.40;99.90;;;;;;4895481;29;20056;-79
2021/11/10 07:58:14;;;;;;;20.88;16.80;;;11.30;99.90;;;;;;4880070;29;20048;-80
2021/11/10 08:00:41;;;;;;;20.05;16.33;;;11.30;99.90;;;;;;4895273;29;20521;-79
2021/11/10 08:03:09;;;;;;;18.27;15.55;;;11.30;99.90;;;;;;4894994;29;20596;-80
2021/11/10 08:05:36;;;;;;;19.27;15.23;;;11.40;99.90;;;;;;4895371;29;20104;-79
2021/11/10 08:08:04;;;;;;;16.55;14.77;;;11.40;99.90;;;;;;4895306;29;20056;-80
2021/11/10 08:10:54;;;;;;;18.90;15.05;;;11.30;99.90;;;;;;4894400;29;20047;-80
2021/11/10 08:13:22;;;;;;;17.77;14.20;;;11.40;99.90;;;;;;4894880;29;20053;-80
2021/11/10 08:15:50;;;;;;;16.33;13.10;;;11.40;99.90;;;;;;4895296;29;20059;-79
2021/11/10 08:18:17;;;;;;;16.13;12.90;;;11.40;99.90;;;;;;4893522;29;20087;-80
2021/11/10 08:20:45;;;;;;;15.52;12.23;;;11.40;99.90;;;;;;4894103;29;20056;-79
2021/11/10 08:23:18;;;;;;;15.38;11.73;;;11.50;99.90;;;;;;4893901;29;20044;-80
2021/11/10 08:25:46;;;;;;;17.60;12.43;;;11.50;99.90;;;;;;4893365;29;20045;-79
2021/11/10 08:28:13;;;;;;;14.98;11.52;;;11.50;99.90;;;;;;4893478;29;20052;-79
2021/11/10 08:30:40;;;;;;;13.15;11.75;;;11.50;99.90;;;;;;4895610;29;20093;-81
2021/11/10 08:33:07;;;;;;;14.18;11.45;;;11.50;99.90;;;;;;4894346;29;20044;-81
2021/11/10 08:35:34;;;;;;;15.23;11.50;;;11.50;99.90;;;;;;4891500;29;20052;-81
2021/11/10 08:38:01;;;;;;;16.52;11.45;;;11.60;99.90;;;;;;4893761;29;20447;-80
2021/11/10 08:40:28;;;;;;;15.35;12.05;;;11.60;99.90;;;;;;4892609;29;20068;-79
2021/11/10 08:42:55;;;;;;;17.10;11.63;;;11.60;99.90;;;;;;4893806;29;20472;-82
2021/11/10 08:45:28;;;;;;;13.00;10.55;;;11.60;99.90;;;;;;4892601;29;20140;-80
2021/11/10 08:47:57;;;;;;;14.65;11.50;;;11.70;99.90;;;;;;4895348;29;20425;-81
2021/11/10 08:50:27;;;;;;;16.10;12.20;;;11.70;99.90;;;;;;4892583;29;20052;-80
2021/11/10 08:52:55;;;;;;;14.88;11.43;;;11.70;99.90;;;;;;4894119;29;20528;-80
2021/11/10 08:55:22;;;;;;;13.88;11.88;;;11.80;99.90;;;;;;4892250;29;20124;-81
2021/11/10 08:57:51;;;;;;;19.98;12.80;;;11.80;99.90;;;;;;4893745;29;20066;-80
2021/11/10 09:00:22;;;;;;;15.35;12.00;;;11.90;99.90;;;;;;4893570;29;20081;-79
2021/11/10 09:02:49;;;;;;;16.38;12.30;;;11.90;99.90;;;;;;4891647;29;20080;-80
2021/11/10 09:05:16;;;;;;;20.05;12.27;;;11.90;99.90;;;;;;4875799;29;20544;-81
2021/11/10 09:07:43;;;;;;;16.50;12.23;;;12.00;99.90;;;;;;4897092;29;20072;-81
2021/11/10 09:10:16;;;;;;;16.50;12.35;;;12.00;99.90;;;;;;4892293;29;20059;-80
2021/11/10 09:12:48;;;;;;;15.88;12.75;;;12.10;99.90;;;;;;4892989;29;20592;-80
2021/11/10 09:15:16;;;;;;;17.20;11.98;;;12.20;99.90;;;;;;4890849;29;20104;-81
2021/11/10 09:17:44;;;;;;;21.45;13.05;;;12.20;99.90;;;;;;4894886;29;20068;-81
2021/11/10 09:20:21;;;;;;;22.58;12.43;;;12.20;99.90;;;;;;4892184;29;20080;-81
2021/11/10 09:22:54;;;;;;;16.70;11.88;;;12.20;99.90;;;;;;4896454;29;20473;-81
2021/11/10 09:25:22;;;;;;;13.00;11.65;;;12.30;99.90;;;;;;4873567;29;20093;-81
2021/11/10 09:27:50;;;;;;;12.40;10.55;;;12.30;99.90;;;;;;4876721;29;20096;-81
2021/11/10 09:30:19;;;;;;;12.20;9.33;;;12.30;99.90;;;;;;4891057;29;20052;-81
2021/11/10 09:32:47;;;;;;;12.57;10.32;;;12.40;99.90;;;;;;4893874;29;20077;-81
2021/11/10 09:35:16;;;;;;;12.80;9.57;;;12.40;99.90;;;;;;4891888;29;20045;-81
2021/11/10 09:37:45;;;;;;;11.15;9.32;;;12.50;99.90;;;;;;4894174;29;20065;-81
2021/11/10 09:40:16;;;;;;;11.73;9.18;;;12.50;99.90;;;;;;4892244;29;20162;-81
2021/11/10 09:42:44;;;;;;;10.90;9.80;;;12.50;99.90;;;;;;4892779;29;20060;-81
2021/11/10 09:45:15;;;;;;;12.30;9.15;;;12.60;99.90;;;;;;4894097;29;20056;-81
2021/11/10 09:47:43;;;;;;;10.98;8.60;;;12.70;99.90;;;;;;4894736;29;20049;-81
2021/11/10 09:50:13;;;;;;;10.50;7.88;;;12.70;99.90;;;;;;4885857;29;20083;-82
2021/11/10 09:52:41;;;;;;;9.70;8.00;;;12.80;99.90;;;;;;4895441;29;20593;-81
2021/11/10 09:55:10;;;;;;;10.82;8.50;;;12.80;99.90;;;;;;4892868;29;20052;-79
2021/11/10 09:57:39;;;;;;;12.00;8.50;;;12.80;99.90;;;;;;4896348;29;20100;-81
2021/11/10 10:00:14;;;;;;;10.57;8.85;;;12.80;99.90;;;;;;4896279;29;20071;-81
2021/11/10 10:02:45;;;;;;;11.63;8.73;;;12.80;99.90;;;;;;4898308;29;20045;-81
2021/11/10 10:05:14;;;;;;;10.10;8.65;;;12.80;99.90;;;;;;4895636;29;20061;-80
2021/11/10 10:07:42;;;;;;;;;;;12.80;99.90;;;;;;4900057;29;20100;-82
2021/11/10 10:10:09;;;;;;;11.35;8.48;;;12.80;99.90;;;;;;4893402;29;19967;-81
2021/11/10 10:12:36;;;;;;;9.77;8.77;;;12.80;99.90;;;;;;4896482;29;20048;-82
2021/11/10 10:15:05;;;;;;;15.82;9.18;;;12.90;99.90;;;;;;4894450;29;20057;-81
2021/11/10 10:17:31;;;;;;;19.17;10.20;;;13.00;99.90;;;;;;4894197;29;20048;-81
2021/11/10 10:19:58;;;;;;;15.43;9.27;;;13.00;99.90;;;;;;4895457;29;20056;-82
2021/11/10 10:22:25;;;;;;;10.65;9.55;;;13.10;99.90;;;;;;4897637;29;20047;-81
2021/11/10 10:24:55;;;;;;;11.15;9.50;;;13.20;99.90;;;;;;4893755;29;20060;-82
2021/11/10 10:27:31;;;;;;;11.80;10.30;;;13.30;99.90;;;;;;4896306;29;20576;-81
2021/11/10 10:30:28;;;;;;;14.82;8.90;;;13.40;99.90;;;;;;4895682;29;20512;-81
2021/11/10 10:33:00;;;;;;;9.23;7.80;;;13.50;99.90;;;;;;4895301;29;20059;-81
2021/11/10 10:35:33;;;;;;;11.80;8.10;;;13.50;99.90;;;;;;4894923;29;20091;-82
2021/11/10 10:38:01;;;;;;;9.70;7.38;;;13.60;99.90;;;;;;4898109;29;20040;-81
2021/11/10 10:40:29;;;;;;;10.27;7.18;;;13.70;99.90;;;;;;4895369;29;20421;-80
2021/11/10 10:42:56;;;;;;;10.02;7.55;;;13.70;99.90;;;;;;4896439;29;20056;-80
2021/11/10 10:45:39;;;;;;;7.30;6.35;;;13.80;99.90;;;;;;4895253;29;20053;-80
2021/11/10 10:48:09;;;;;;;7.20;6.25;;;13.90;99.90;;;;;;4896814;29;20131;-81
2021/11/10 10:50:44;;;;;;;8.90;6.53;;;14.00;99.90;;;;;;4896014;29;20155;-81
2021/11/10 10:53:14;;;;;;;7.25;5.50;;;14.00;99.90;;;;;;4881398;29;20127;-82
2021/11/10 10:55:44;;;;;;;7.68;5.70;;;14.10;99.90;;;;;;4893970;29;20085;-80
2021/11/10 10:58:30;;;;;;;7.03;4.72;;;14.20;99.90;;;;;;4897374;29;20139;-81
2021/11/10 11:00:59;;;;;;;5.28;4.60;;;14.30;99.90;;;;;;4893486;29;20085;-81
2021/11/10 11:03:27;;;;;;;2.60;2.40;;;14.30;99.90;;;;;;4895584;29;20390;-81
2021/11/10 11:05:55;;;;;;;4.53;3.25;;;14.40;99.90;;;;;;4895071;29;20053;-81
2021/11/10 11:08:34;;;;;;;4.78;3.40;;;14.50;99.90;;;;;;4898405;29;20048;-81
2021/11/10 11:11:18;;;;;;;3.65;2.10;;;14.50;99.90;;;;;;4893792;29;20069;-81
2021/11/10 11:13:51;;;;;;;4.82;2.28;;;14.60;99.90;;;;;;4894055;29;20069;-81
2021/11/10 11:16:21;;;;;;;3.53;2.58;;;14.70;99.90;;;;;;4879440;29;20100;-81
2021/11/10 11:18:48;;;;;;;2.97;2.25;;;14.70;99.90;;;;;;4896042;29;20051;-81
2021/11/10 11:21:33;;;;;;;2.90;2.30;;;14.80;99.90;;;;;;4892017;29;20059;-82
2021/11/10 11:24:00;;;;;;;3.47;2.53;;;14.80;99.90;;;;;;4894284;29;20124;-81
2021/11/10 11:26:45;;;;;;;2.67;2.15;;;14.80;99.90;;;;;;4893409;29;20072;-81
2021/11/10 11:29:23;;;;;;;2.55;1.90;;;14.90;99.90;;;;;;4893343;29;20092;-81
2021/11/10 11:31:54;;;;;;;3.35;1.90;;;14.90;99.90;;;;;;4889372;29;20049;-81
2021/11/10 11:34:23;;;;;;;2.30;2.08;;;14.90;99.90;;;;;;4888695;29;20076;-82
2021/11/10 11:36:55;;;;;;;4.13;2.30;;;15.00;99.90;;;;;;4895354;29;20049;-81
2021/11/10 11:39:23;;;;;;;2.63;2.40;;;15.00;99.90;;;;;;4894473;29;20053;-81
2021/11/10 11:41:51;;;;;;;6.13;2.83;;;15.00;99.90;;;;;;4892024;29;20064;-80
2021/11/10 11:44:20;;;;;;;2.80;2.50;;;15.10;99.90;;;;;;4892693;29;20921;-81
2021/11/10 11:46:48;;;;;;;3.70;2.90;;;15.20;99.90;;;;;;4893263;29;20304;-79
2021/11/10 11:49:15;;;;;;;4.22;3.25;;;15.20;99.90;;;;;;4893967;29;20080;-79
2021/11/10 11:51:44;;;;;;;5.60;3.17;;;15.20;99.90;;;;;;4893943;29;20081;-80
2021/11/10 11:54:14;;;;;;;2.83;2.08;;;15.20;99.90;;;;;;4876725;29;20479;-80
2021/11/10 11:56:42;;;;;;;3.47;1.55;;;15.20;99.90;;;;;;4893831;29;20076;-79
2021/11/10 11:59:10;;;;;;;5.32;2.00;;;15.20;99.90;;;;;;4891584;29;20072;-78
2021/11/10 12:01:38;;;;;;;5.63;2.38;;;15.20;99.90;;;;;;4892031;29;20092;-78
2021/11/10 12:04:11;;;;;;;8.50;2.97;;;15.20;99.90;;;;;;4888836;29;20115;-78
2021/11/10 12:06:47;;;;;;;4.82;2.10;;;15.20;99.90;;;;;;4874676;29;20100;-80
2021/11/10 12:09:20;;;;;;;6.03;2.28;;;15.20;99.90;;;;;;4893015;29;20063;-79
2021/11/10 12:11:56;;;;;;;8.45;2.58;;;15.10;99.90;;;;;;4892273;29;20446;-80
2021/11/10 12:14:31;;;;;;;6.38;2.17;;;15.10;99.90;;;;;;4891410;29;20862;-80
2021/11/10 12:17:05;;;;;;;5.18;1.95;;;15.10;99.90;;;;;;4894037;29;20048;-80
2021/11/10 12:19:41;;;;;;;11.00;2.80;;;15.00;99.90;;;;;;4891450;29;20044;-78
2021/11/10 12:22:18;;;;;;;7.28;2.83;;;15.00;99.90;;;;;;4874493;29;20048;-80
2021/11/10 12:24:53;;;;;;;6.20;2.60;;;14.90;99.90;;;;;;4889421;29;20060;-79
2021/11/10 12:27:22;;;;;;;6.18;3.70;;;14.90;99.90;;;;;;4889932;29;20060;-79
2021/11/10 12:29:56;;;;;;;4.50;3.15;;;14.90;99.90;;;;;;4875055;29;20152;-80
2021/11/10 12:32:42;;;;;;;6.10;4.20;;;14.90;99.90;;;;;;4891495;29;20048;-79
2021/11/10 12:35:30;;;;;;;5.45;4.28;;;14.90;99.90;;;;;;4889823;29;20139;-81
2021/11/10 12:37:59;;;;;;;6.78;4.45;;;14.80;99.90;;;;;;4892637;29;20048;-80
2021/11/10 12:40:29;;;;;;;5.60;4.22;;;14.80;99.90;;;;;;4891837;29;20469;-79
2021/11/10 12:42:59;;;;;;;5.57;3.90;;;14.80;99.90;;;;;;4890218;29;20083;-79
2021/11/10 12:45:38;;;;;;;7.32;4.82;;;14.80;99.90;;;;;;4890697;29;20060;-78
2021/11/10 12:48:11;;;;;;;6.78;4.20;;;14.80;99.90;;;;;;4893491;29;20976;-80
2021/11/10 12:50:46;;;;;;;6.18;4.10;;;14.80;99.90;;;;;;4888434;29;20521;-80
2021/11/10 12:53:14;;;;;;;5.80;4.55;;;14.80;99.90;;;;;;4892911;29;20075;-81
2021/11/10 12:55:51;;;;;;;;;;;14.80;99.90;;;;;;4891626;29;20077;-80
2021/11/10 12:58:21;;;;;;;5.28;3.70;;;14.80;99.90;;;;;;4893589;29;19926;-81
2021/11/10 13:00:54;;;;;;;8.57;3.75;;;14.70;99.90;;;;;;4874365;29;20127;-80
2021/11/10 13:03:29;;;;;;;4.72;3.55;;;14.70;99.90;;;;;;4894256;29;20104;-80
2021/11/10 13:06:23;;;;;;;3.60;2.95;;;14.80;99.90;;;;;;4894838;29;20497;-80
2021/11/10 13:09:41;;;;;;;3.40;2.90;;;14.70;99.90;;;;;;4891502;29;20052;-80
2021/11/10 13:11:45;;;;;;;3.60;2.72;;;14.70;99.90;;;;;;4881910;29;20863;-81
2021/11/10 13:14:17;;;;;;;5.00;2.60;;;14.70;99.90;;;;;;4893453;29;20096;-81
2021/11/10 13:16:56;;;;;;;3.75;2.65;;;14.80;99.90;;;;;;4893740;29;20559;-80
2021/11/10 13:19:43;;;;;;;;;;;14.70;99.90;;;;;;4892770;29;25277;-80
2021/11/10 13:22:14;;;;;;;6.65;3.42;;;14.70;99.90;;;;;;4806015;29;19928;-80
2021/11/10 13:24:43;;;;;;;8.98;4.53;;;14.70;99.90;;;;;;4812240;29;20120;-79
2021/11/10 13:27:11;;;;;;;6.63;4.10;;;14.60;99.90;;;;;;4810554;29;20067;-79
2021/11/10 13:29:46;;;;;;;8.25;4.10;;;14.60;99.90;;;;;;4808151;29;20511;-80
2021/11/10 13:32:16;;;;;;;9.18;4.57;;;14.50;99.90;;;;;;4804439;29;20143;-79
2021/11/10 13:34:47;;;;;;;8.55;4.60;;;14.50;99.90;;;;;;4808847;29;20079;-79
2021/11/10 13:37:15;;;;;;;9.93;4.68;;;14.50;99.90;;;;;;4811485;29;20234;-80
2021/11/10 13:39:43;;;;;;;28.10;6.53;;;14.40;99.90;;;;;;4812857;29;20050;-78
2021/11/10 13:42:15;;;;;;;13.25;5.82;;;14.40;99.90;;;;;;4810885;29;20077;-79
2021/11/10 13:44:43;;;;;;;9.05;4.90;;;14.40;99.90;;;;;;4813434;29;20546;-80
2021/11/10 13:47:12;;;;;;;12.85;4.45;;;14.30;99.90;;;;;;4807784;29;20050;-80
2021/11/10 13:49:44;;;;;;;9.88;4.75;;;14.30;99.90;;;;;;4830324;29;20054;-79
2021/11/10 13:52:21;;;;;;;14.75;4.60;;;14.30;99.90;;;;;;4832321;29;20046;-80
2021/11/10 13:54:53;;;;;;;10.68;4.13;;;14.30;99.90;;;;;;4829851;29;20054;-78
2021/11/10 13:57:32;;;;;;;17.83;5.25;;;14.20;99.90;;;;;;4831284;29;20080;-78
2021/11/10 14:00:07;;;;;;;15.70;5.75;;;14.20;99.90;;;;;;4888481;29;20044;-79
2021/11/10 14:02:44;;;;;;;12.50;4.72;;;14.20;99.90;;;;;;4900259;29;20044;-80
2021/11/10 14:05:13;;;;;;;8.80;4.43;;;14.10;99.90;;;;;;4889994;29;20057;-80
2021/11/10 14:07:42;;;;;;;12.32;4.60;;;14.10;99.90;;;;;;4892862;29;20080;-78
2021/11/10 14:10:11;;;;;;;10.70;3.80;;;14.10;99.90;;;;;;4889977;29;20076;-78
2021/11/10 14:12:47;;;;;;;11.77;4.22;;;14.00;99.90;;;;;;4875520;29;20045;-78
2021/11/10 14:15:34;;;;;;;11.63;4.75;;;14.00;99.90;;;;;;4890861;29;20546;-78
2021/11/10 14:18:05;;;;;;;10.35;4.30;;;13.90;99.90;;;;;;4891751;29;20593;-79
2021/11/10 14:20:35;;;;;;;13.45;4.50;;;13.90;99.90;;;;;;4892392;29;20045;-80
2021/11/10 14:23:11;;;;;;;14.45;4.70;;;13.90;99.90;;;;;;4892640;29;20052;-79
2021/11/10 14:25:47;;;;;;;14.43;4.65;;;13.80;99.90;;;;;;4892277;29;20080;-80
2021/11/10 14:28:32;;;;;;;12.60;5.10;;;13.80;99.90;;;;;;4890575;29;20052;-80
2021/11/10 14:31:02;;;;;;;11.05;5.15;;;13.70;99.90;;;;;;4890794;29;20044;-78
2021/11/10 14:33:34;;;;;;;14.82;5.00;;;13.70;99.90;;;;;;4891777;29;20033;-80
2021/11/10 14:36:24;;;;;;;18.05;5.20;;;13.70;99.90;;;;;;4892670;29;20045;-78
2021/11/10 14:38:55;;;;;;;14.43;4.93;;;13.60;99.90;;;;;;4891889;29;20124;-80
2021/11/10 14:41:36;;;;;;;14.10;5.20;;;13.60;99.90;;;;;;4881723;29;20048;-80
2021/11/10 14:44:12;;;;;;;11.15;5.07;;;13.50;99.90;;;;;;4895254;29;20064;-80
2021/11/10 14:46:41;;;;;;;10.52;4.95;;;13.50;99.90;;;;;;4894236;29;20076;-80
2021/11/10 14:49:26;;;;;;;16.30;5.13;;;13.50;99.90;;;;;;4895030;29;20048;-79
2021/11/10 14:51:57;;;;;;;16.50;5.10;;;13.40;99.90;;;;;;4894088;29;20097;-79
2021/11/10 14:54:32;;;;;;;16.85;5.53;;;13.40;99.90;;;;;;4896307;29;20057;-80
2021/11/10 14:57:10;;;;;;;11.93;4.38;;;13.40;99.90;;;;;;4896584;29;20082;-79
2021/11/10 14:59:44;;;;;;;17.57;6.33;;;13.40;99.90;;;;;;4896394;29;20121;-80
2021/11/10 15:02:14;;;;;;;13.43;4.50;;;13.40;99.90;;;;;;4896218;29;20104;-80
2021/11/10 15:04:52;;;;;;;11.25;4.50;;;13.30;99.90;;;;;;4880116;29;20108;-80
2021/11/10 15:07:49;;;;;;;9.73;4.50;;;13.30;99.90;;;;;;4880603;29;20481;-80
2021/11/10 15:10:22;;;;;;;11.43;5.07;;;13.30;99.90;;;;;;4888025;29;20131;-79
2021/11/10 15:13:10;;;;;;;12.77;4.93;;;13.30;99.90;;;;;;4887763;29;20529;-80
2021/11/10 15:15:39;;;;;;;15.13;5.00;;;13.30;99.90;;;;;;4891648;29;20123;-79
2021/11/10 15:18:14;;;;;;;13.52;5.20;;;13.30;99.90;;;;;;4884305;29;20056;-79
2021/11/10 15:20:44;;;;;;;11.82;4.82;;;13.30;99.90;;;;;;4888706;29;20041;-79
2021/11/10 15:23:16;;;;;;;15.40;5.10;;;13.20;99.90;;;;;;4890304;29;20355;-79
2021/11/10 15:25:44;;;;;;;11.68;4.55;;;13.20;99.90;;;;;;4893355;29;20049;-80
2021/11/10 15:28:13;;;;;;;11.30;4.93;;;13.20;99.90;;;;;;4887581;29;20147;-81
2021/11/10 15:30:43;;;;;;;12.68;4.65;;;13.20;99.90;;;;;;4892285;29;20087;-80
2021/11/10 15:33:13;;;;;;;11.02;5.03;;;13.20;99.90;;;;;;4876577;29;20052;-80
2021/11/10 15:35:43;;;;;;;11.88;5.13;;;13.10;99.90;;;;;;4892105;29;20080;-81
2021/11/10 15:38:19;;;;;;;17.80;5.05;;;13.20;99.90;;;;;;4889158;29;20049;-79
2021/11/10 15:40:50;;;;;;;14.48;5.82;;;13.20;99.90;;;;;;4889692;29;20088;-79
2021/11/10 15:43:17;;;;;;;20.17;6.25;;;13.10;99.90;;;;;;4880968;29;20058;-81
2021/11/10 15:45:45;;;;;;;13.10;5.28;;;13.10;99.90;;;;;;4882237;29;20108;-82
2021/11/10 15:48:13;;;;;;;18.77;5.50;;;13.10;99.90;;;;;;4888356;29;20072;-81
2021/11/10 15:50:41;;;;;;;11.85;4.97;;;13.10;99.90;;;;;;4885296;29;20100;-81
2021/11/10 15:53:10;;;;;;;10.57;4.78;;;13.00;99.90;;;;;;4884393;29;20052;-81
2021/11/10 15:55:38;;;;;;;15.13;5.72;;;13.00;99.90;;;;;;4883350;29;20498;-80
2021/11/10 15:58:07;;;;;;;14.15;5.38;;;13.00;99.90;;;;;;4886211;29;20080;-80
2021/11/10 16:00:35;;;;;;;15.40;5.72;;;13.00;99.90;;;;;;4884277;29;20084;-81
2021/11/10 16:03:33;;;;;;;10.93;4.88;;;13.00;99.90;;;;;;4879191;29;20076;-80
2021/11/10 16:06:00;;;;;;;17.33;5.47;;;13.00;99.90;;;;;;4882739;29;20105;-81
2021/11/10 16:08:28;;;;;;;13.55;4.85;;;13.00;99.90;;;;;;4881292;29;20490;-80
2021/11/10 16:10:55;;;;;;;12.05;4.32;;;12.90;99.90;;;;;;4875510;29;20068;-80
2021/11/10 16:13:25;;;;;;;15.73;5.05;;;12.90;99.90;;;;;;4880663;29;20576;-81
2021/11/10 16:15:53;;;;;;;9.32;5.03;;;12.90;99.90;;;;;;4891913;29;20092;-82
2021/11/10 16:18:21;;;;;;;12.90;5.57;;;12.90;99.90;;;;;;4874787;29;20052;-82
2021/11/10 16:20:54;;;;;;;14.85;5.03;;;12.80;99.90;;;;;;4878630;29;20068;-81
2021/11/10 16:23:23;;;;;;;13.52;5.07;;;12.80;99.90;;;;;;4891263;29;20482;-82
2021/11/10 16:25:51;;;;;;;12.88;5.07;;;12.80;99.90;;;;;;4894719;29;20088;-81
2021/11/10 16:28:25;;;;;;;16.02;5.20;;;12.80;99.90;;;;;;4889530;29;20044;-80
2021/11/10 16:33:42;;;;;;;15.68;5.35;;;12.70;99.90;;;;;;4814713;29;20661;-81
2021/11/10 16:36:14;;;;;;;14.98;5.80;;;12.70;99.90;;;;;;4817845;29;20594;-80
2021/11/10 16:38:41;;;;;;;14.48;5.20;;;12.70;99.90;;;;;;4816032;29;20051;-81
2021/11/10 16:41:09;;;;;;;16.35;6.03;;;12.70;99.90;;;;;;4813825;29;20074;-80
2021/11/10 16:43:37;;;;;;;17.02;6.10;;;12.70;99.90;;;;;;4817365;29;20615;-79
2021/11/10 16:46:05;;;;;;;14.65;5.47;;;12.60;99.90;;;;;;4816174;29;20107;-79
2021/11/10 16:48:32;;;;;;;15.70;6.28;;;12.60;99.90;;;;;;4815392;29;20058;-80
2021/11/10 16:51:03;;;;;;;17.35;6.25;;;12.60;99.90;;;;;;4815621;29;20054;-81
2021/11/10 16:53:31;;;;;;;19.77;6.68;;;12.60;99.90;;;;;;4814096;29;20057;-81
2021/11/10 16:55:59;;;;;;;15.68;5.03;;;12.50;99.90;;;;;;4805180;29;20055;-80
2021/11/10 16:58:36;;;;;;;15.63;5.25;;;12.50;99.90;;;;;;4804340;29;20053;-80
2021/11/10 17:01:07;;;;;;;17.25;6.03;;;12.50;99.90;;;;;;4814005;29;20054;-81
2021/11/10 17:03:35;;;;;;;;;;;12.50;99.90;;;;;;4816154;29;20057;-81
2021/11/10 17:06:04;;;;;;;15.60;6.60;;;12.50;99.90;;;;;;4815831;29;20036;-81
2021/11/10 17:08:32;;;;;;;15.13;6.95;;;12.40;99.90;;;;;;4819688;29;20070;-80
2021/11/10 17:11:00;;;;;;;14.02;7.15;;;12.40;99.90;;;;;;4860689;29;20092;-81
2021/11/10 17:13:28;;;;;;;18.45;8.80;;;12.40;99.90;;;;;;4888112;29;20056;-80
2021/11/10 17:15:57;;;;;;;19.65;9.07;;;12.40;99.90;;;;;;4885606;29;20530;-79
2021/11/10 17:18:25;;;;;;;20.20;11.23;;;12.40;99.90;;;;;;4890937;29;20056;-81
2021/11/10 17:20:52;;;;;;;22.23;14.55;;;12.40;99.90;;;;;;4893683;29;20060;-81
2021/11/10 17:23:20;;;;;;;22.92;9.50;;;12.40;99.90;;;;;;4889351;29;20052;-80
2021/11/10 17:25:47;;;;;;;18.90;8.30;;;12.30;99.90;;;;;;4888313;29;20052;-80
2021/11/10 17:28:14;;;;;;;17.45;8.27;;;12.30;99.90;;;;;;4884642;29;20103;-80
2021/11/10 17:30:41;;;;;;;13.77;7.00;;;12.30;99.90;;;;;;4885413;29;20853;-81
2021/11/10 17:33:12;;;;;;;14.07;7.28;;;12.20;99.90;;;;;;4891179;29;20056;-80
2021/11/10 17:35:41;;;;;;;18.85;8.05;;;12.20;99.90;;;;;;4891862;29;20177;-80
2021/11/10 17:38:08;;;;;;;15.82;7.32;;;12.20;99.90;;;;;;4890804;29;20104;-80
2021/11/10 17:40:37;;;;;;;52.38;31.77;;;12.20;99.90;;;;;;4892028;29;20044;-82
2021/11/10 17:43:05;;;;;;;25.30;9.93;;;12.20;99.90;;;;;;4888665;29;20989;-81
2021/11/10 17:45:33;;;;;;;18.23;8.68;;;12.20;99.90;;;;;;4880999;29;20072;-80
2021/11/10 17:48:00;;;;;;;16.52;8.07;;;12.10;99.90;;;;;;4884974;29;20466;-81
2021/11/10 17:50:28;;;;;;;17.85;7.72;;;12.10;99.90;;;;;;4888960;29;20191;-81
2021/11/10 17:52:55;;;;;;;17.77;8.30;;;12.10;99.90;;;;;;4892089;29;20109;-81
2021/11/10 17:55:24;;;;;;;19.58;7.65;;;12.10;99.90;;;;;;4892937;29;20053;-81
2021/11/10 17:57:52;;;;;;;;;;;12.10;99.90;;;;;;4889263;29;20109;-81
2021/11/10 18:00:22;;;;;;;20.23;7.75;;;12.10;99.90;;;;;;4893426;29;19971;-81
2021/11/10 18:02:51;;;;;;;17.42;7.95;;;12.10;99.90;;;;;;4892454;29;20056;-79
2021/11/10 18:05:18;;;;;;;;;;;12.10;99.90;;;;;;4892960;29;20076;-81
2021/11/10 18:07:45;;;;;;;21.90;7.97;;;12.10;99.90;;;;;;4893217;29;20436;-82
2021/11/10 18:10:13;;;;;;;19.13;12.98;;;12.10;99.90;;;;;;4892048;29;20545;-81
2021/11/10 18:12:40;;;;;;;23.27;8.88;;;12.00;99.90;;;;;;4888837;29;20492;-81
2021/11/10 18:15:09;;;;;;;21.83;11.10;;;12.00;99.90;;;;;;4882211;29;20600;-81
2021/11/10 18:17:37;;;;;;;18.10;10.50;;;11.90;99.90;;;;;;4885314;29;20119;-79
2021/11/10 18:20:08;;;;;;;22.40;10.50;;;11.90;99.90;;;;;;4879960;29;20067;-81
2021/11/10 18:22:40;;;;;;;19.23;8.65;;;11.90;99.90;;;;;;4882614;29;20056;-81
2021/11/10 18:25:08;;;;;;;16.70;10.52;;;11.90;99.90;;;;;;4894131;29;20108;-81
2021/11/10 18:27:35;;;;;;;15.45;9.57;;;12.00;99.90;;;;;;4887584;29;20474;-81
2021/11/10 18:30:04;;;;;;;26.60;12.27;;;12.00;99.90;;;;;;4893248;29;20056;-81
2021/11/10 18:32:31;;;;;;;66.53;35.72;;;12.10;99.90;;;;;;4888398;29;20466;-82
2021/11/10 18:35:04;;;;;;;29.83;14.45;;;12.00;99.90;;;;;;4897158;29;20079;-81
2021/11/10 18:37:31;;;;;;;71.53;33.75;;;12.00;99.90;;;;;;4894770;29;20067;-81
2021/11/10 18:39:59;;;;;;;56.50;25.13;;;12.10;99.90;;;;;;4889330;29;20052;-80
2021/11/10 18:42:26;;;;;;;52.22;24.67;;;12.00;99.90;;;;;;4887896;29;20132;-81
2021/11/10 18:44:53;;;;;;;29.77;16.10;;;12.00;99.90;;;;;;4896595;29;20049;-81
2021/11/10 18:47:24;;;;;;;25.20;12.50;;;12.10;99.90;;;;;;4894370;29;21142;-82
2021/11/10 18:49:53;;;;;;;17.42;8.40;;;12.10;99.90;;;;;;4892727;29;20530;-81
2021/11/10 18:52:20;;;;;;;;;;;12.00;99.90;;;;;;4891824;29;20592;-81
2021/11/10 18:54:47;;;;;;;32.38;16.48;;;12.00;99.90;;;;;;4893448;29;19978;-81
2021/11/10 18:57:14;;;;;;;24.05;16.25;;;12.00;99.90;;;;;;4888530;29;20041;-81
2021/11/10 18:59:49;;;;;;;19.10;11.23;;;12.00;99.90;;;;;;4887524;29;20053;-81
2021/11/10 19:02:17;;;;;;;21.65;12.75;;;12.00;99.90;;;;;;4878988;29;20044;-80
2021/11/10 19:07:25;;;;;;;26.63;16.38;;;12.00;99.90;;;;;;4883557;29;20111;-80
2021/11/10 19:20:14;;;;;;;28.50;16.95;;;12.00;99.90;;;;;;4800571;29;20571;-81
2021/11/10 19:22:41;;;;;;;26.63;17.95;;;12.00;99.90;;;;;;4800878;29;20082;-81
2021/11/10 19:25:08;;;;;;;23.92;17.00;;;12.00;99.90;;;;;;4799224;29;20079;-81
2021/11/10 19:27:37;;;;;;;25.38;15.40;;;12.00;99.90;;;;;;4798768;29;20479;-81
2021/11/10 19:30:05;;;;;;;28.00;15.02;;;12.00;99.90;;;;;;4799260;29;20055;-81
2021/11/10 19:32:33;;;;;;;20.40;11.90;;;12.00;99.90;;;;;;4798293;29;20115;-82
2021/11/10 19:35:00;;;;;;;18.73;10.68;;;11.90;99.90;;;;;;4800341;29;20074;-81
2021/11/10 19:37:30;;;;;;;21.05;11.30;;;11.90;99.90;;;;;;4778102;29;20997;-82
2021/11/10 19:39:57;;;;;;;23.48;14.07;;;11.80;99.90;;;;;;4794676;29;20529;-82
2021/11/10 19:42:24;;;;;;;26.20;15.20;;;11.80;99.90;;;;;;4797718;29;20097;-82
2021/11/10 19:44:51;;;;;;;21.88;12.68;;;11.80;99.90;;;;;;4801652;29;20083;-82
2021/11/10 19:47:18;;;;;;;19.23;11.27;;;11.80;99.90;;;;;;4800721;29;20054;-81
2021/11/10 19:49:45;;;;;;;26.35;12.15;;;11.80;99.90;;;;;;4841167;29;20486;-82
2021/11/10 19:52:12;;;;;;;22.15;11.77;;;11.80;99.90;;;;;;4893082;29;20108;-83
2021/11/10 19:54:39;;;;;;;21.60;11.77;;;11.70;99.90;;;;;;4893760;29;20049;-82
2021/11/10 19:57:07;;;;;;;26.33;12.57;;;11.70;99.90;;;;;;4891423;29;20108;-81
2021/11/10 19:59:34;;;;;;;21.55;12.75;;;11.70;99.90;;;;;;4887590;29;20076;-83
2021/11/10 20:02:01;;;;;;;23.45;13.32;;;11.70;99.90;;;;;;4890761;29;20052;-83
2021/11/10 20:04:29;;;;;;;18.65;12.30;;;11.70;99.90;;;;;;4864206;29;20131;-82
2021/11/10 20:06:57;;;;;;;25.27;12.07;;;11.80;99.90;;;;;;4885029;29;20049;-82
2021/11/10 20:09:25;;;;;;;21.98;11.88;;;11.80;99.90;;;;;;4871794;29;20057;-81
2021/11/10 20:11:52;;;;;;;18.85;10.45;;;11.70;99.90;;;;;;4883382;29;20398;-82